createdAt,value
2017-05-17T00:00:39.248Z,20.84
2017-05-17T00:03:07.005Z,19.76
2017-05-17T00:05:34.348Z,21.24
2017-05-17T00:08:01.314Z,22.42
2017-05-17T00:10:29.084Z,20.42
2017-05-17T00:12:57.221Z,22.06
2017-05-17T00:15:24.252Z,21.36
2017-05-17T00:17:51.281Z,20.24
2017-05-17T00:20:18.626Z,21.18
2017-05-17T00:22:45.647Z,20.10
2017-05-17T00:25:20.284Z,21.08
2017-05-17T00:27:47.294Z,21.60
2017-05-17T00:30:14.261Z,21.48
2017-05-17T00:32:41.709Z,22.38
2017-05-17T00:35:08.721Z,20.76
2017-05-17T00:37:48.375Z,20.48
2017-05-17T00:40:33.879Z,19.96
2017-05-17T00:43:19.564Z,19.86
2017-05-17T00:46:05.224Z,20.20
2017-05-17T00:48:51.249Z,19.18
2017-05-17T00:51:36.976Z,19.52
2017-05-17T00:54:10.401Z,19.24
2017-05-17T00:56:37.426Z,18.32
2017-05-17T00:59:04.433Z,19.52
2017-05-17T01:01:32.592Z,17.68
2017-05-17T01:04:00.375Z,16.96
2017-05-17T01:06:28.140Z,16.84
2017-05-17T01:08:55.764Z,18.50
2017-05-17T01:11:22.763Z,16.24
2017-05-17T01:13:50.695Z,15.88
2017-05-17T01:16:18.157Z,16.76
2017-05-17T01:18:45.163Z,17.46
2017-05-17T01:21:12.170Z,18.02
2017-05-17T01:23:39.588Z,17.00
2017-05-17T01:26:06.584Z,17.18
2017-05-17T01:28:34.345Z,17.32
2017-05-17T01:31:02.492Z,17.24
2017-05-17T01:33:30.251Z,16.78
2017-05-17T01:35:59.169Z,15.12
2017-05-17T01:38:26.579Z,16.64
2017-05-17T01:40:53.607Z,16.92
2017-05-17T01:43:20.637Z,15.68
2017-05-17T01:45:48.139Z,15.70
2017-05-17T01:48:15.183Z,16.12
2017-05-17T01:50:42.213Z,16.24
2017-05-17T01:53:09.609Z,18.76
2017-05-17T01:55:36.625Z,17.32
2017-05-17T01:58:03.707Z,17.70
2017-05-17T02:00:31.884Z,17.10
2017-05-17T02:02:58.881Z,16.42
2017-05-17T02:05:38.578Z,17.14
2017-05-17T02:08:09.721Z,16.44
2017-05-17T02:10:36.739Z,16.50
2017-05-17T02:13:04.105Z,17.00
2017-05-17T02:15:31.916Z,17.04
2017-05-17T02:17:58.897Z,16.44
2017-05-17T02:20:26.392Z,16.04
2017-05-17T02:22:53.444Z,15.36
2017-05-17T02:25:20.440Z,17.42
2017-05-17T02:27:47.845Z,16.04
2017-05-17T02:30:14.844Z,15.00
2017-05-17T02:32:41.880Z,16.36
2017-05-17T02:35:09.294Z,15.62
2017-05-17T02:37:36.313Z,18.54
2017-05-17T02:40:03.329Z,15.88
2017-05-17T02:42:30.666Z,17.84
2017-05-17T02:44:58.473Z,15.76
2017-05-17T02:47:25.496Z,16.34
2017-05-17T02:49:53.709Z,16.60
2017-05-17T02:52:20.739Z,17.12
2017-05-17T02:54:47.745Z,15.54
2017-05-17T02:57:15.151Z,13.32
2017-05-17T02:59:42.199Z,16.10
2017-05-17T03:02:09.251Z,16.34
2017-05-17T03:04:36.639Z,15.06
2017-05-17T03:07:04.391Z,14.08
2017-05-17T03:09:31.405Z,15.50
2017-05-17T03:11:58.776Z,14.92
2017-05-17T03:14:25.804Z,16.02
2017-05-17T03:16:52.832Z,16.82
2017-05-17T03:19:20.359Z,14.42
2017-05-17T03:21:47.384Z,16.34
2017-05-17T03:24:14.413Z,15.88
2017-05-17T03:26:41.753Z,17.32
2017-05-17T03:29:08.782Z,17.08
2017-05-17T03:31:35.805Z,15.52
2017-05-17T03:34:03.884Z,14.34
2017-05-17T03:36:30.948Z,14.92
2017-05-17T03:38:57.985Z,15.24
2017-05-17T03:41:25.347Z,15.12
2017-05-17T03:43:52.352Z,14.80
2017-05-17T03:46:19.387Z,13.98
2017-05-17T03:48:46.875Z,15.52
2017-05-17T03:51:14.630Z,15.28
2017-05-17T03:53:41.653Z,13.94
2017-05-17T03:56:09.020Z,16.20
2017-05-17T03:58:36.007Z,14.54
2017-05-17T04:01:03.764Z,14.28
2017-05-17T04:03:31.715Z,15.10
2017-05-17T04:05:58.712Z,15.32
2017-05-17T04:08:25.822Z,15.60
2017-05-17T04:10:53.791Z,16.08
2017-05-17T04:13:20.835Z,14.96
2017-05-17T04:15:47.832Z,15.52
2017-05-17T04:18:15.226Z,15.12
2017-05-17T04:20:42.252Z,13.86
2017-05-17T04:23:09.338Z,14.50
2017-05-17T04:25:36.805Z,14.72
2017-05-17T04:28:03.834Z,15.88
2017-05-17T04:30:30.852Z,16.06
2017-05-17T04:32:58.251Z,12.96
2017-05-17T04:35:26.043Z,14.54
2017-05-17T04:37:53.067Z,13.78
2017-05-17T04:40:21.220Z,15.02
2017-05-17T04:42:48.236Z,14.28
2017-05-17T04:45:15.265Z,13.26
2017-05-17T04:47:42.678Z,17.30
2017-05-17T04:50:09.717Z,12.56
2017-05-17T04:52:36.740Z,13.16
2017-05-17T04:55:04.116Z,14.38
2017-05-17T04:57:31.162Z,13.18
2017-05-17T04:59:58.205Z,14.18
2017-05-17T05:02:25.695Z,13.20
2017-05-17T05:04:52.793Z,12.44
2017-05-17T05:07:19.840Z,12.40
2017-05-17T05:09:47.223Z,13.22
2017-05-17T05:12:14.232Z,11.58
2017-05-17T05:14:41.232Z,12.98
2017-05-17T05:17:08.684Z,11.58
2017-05-17T05:19:36.460Z,11.80
2017-05-17T05:22:03.473Z,11.96
2017-05-17T05:24:30.853Z,11.80
2017-05-17T05:26:57.863Z,13.66
2017-05-17T05:29:24.857Z,11.92
2017-05-17T05:31:52.187Z,10.84
2017-05-17T05:34:19.181Z,12.50
2017-05-17T05:36:46.261Z,11.32
2017-05-17T05:39:13.654Z,12.08
2017-05-17T05:41:40.653Z,13.24
2017-05-17T05:44:07.652Z,12.06
2017-05-17T05:46:35.067Z,10.80
2017-05-17T05:49:02.081Z,11.70
2017-05-17T05:51:29.818Z,11.52
2017-05-17T05:53:57.175Z,11.82
2017-05-17T05:56:24.974Z,11.56
2017-05-17T05:58:52.009Z,11.52
2017-05-17T06:01:19.396Z,10.94
2017-05-17T06:03:46.429Z,11.62
2017-05-17T06:06:13.439Z,12.46
2017-05-17T06:08:40.774Z,13.78
2017-05-17T06:11:07.799Z,12.02
2017-05-17T06:13:34.833Z,12.94
2017-05-17T06:16:02.226Z,13.18
2017-05-17T06:18:29.256Z,13.30
2017-05-17T06:20:56.290Z,12.86
2017-05-17T06:23:23.672Z,14.24
2017-05-17T06:25:50.720Z,13.22
2017-05-17T06:28:17.745Z,12.22
2017-05-17T06:30:45.152Z,11.80
2017-05-17T06:33:12.173Z,12.72
2017-05-17T06:35:46.387Z,12.00
2017-05-17T06:38:13.397Z,11.58
2017-05-17T06:40:40.451Z,11.02
2017-05-17T06:43:07.972Z,12.44
2017-05-17T06:45:35.036Z,10.60
2017-05-17T06:48:02.117Z,12.48
2017-05-17T06:50:29.516Z,10.64
2017-05-17T06:52:57.314Z,11.36
2017-05-17T06:55:24.330Z,12.50
2017-05-17T06:57:52.390Z,11.96
2017-05-17T07:00:20.165Z,11.46
2017-05-17T07:02:47.213Z,12.16
2017-05-17T07:05:14.728Z,11.60
2017-05-17T07:07:41.782Z,12.24
2017-05-17T07:10:08.819Z,12.90
2017-05-17T07:12:36.286Z,13.16
2017-05-17T07:15:03.442Z,12.18
2017-05-17T07:17:30.536Z,12.08
2017-05-17T07:19:57.927Z,12.02
2017-05-17T07:22:24.956Z,11.22
2017-05-17T07:24:52.776Z,11.58
2017-05-17T07:27:20.904Z,10.64
2017-05-17T07:29:47.918Z,11.68
2017-05-17T07:32:14.956Z,12.66
2017-05-17T07:34:42.364Z,11.92
2017-05-17T07:37:10.133Z,10.94
2017-05-17T07:39:37.913Z,9.92
2017-05-17T07:42:05.348Z,11.88
2017-05-17T07:44:32.368Z,12.30
2017-05-17T07:46:59.436Z,11.32
2017-05-17T07:49:26.791Z,12.44
2017-05-17T07:51:54.564Z,13.72
2017-05-17T07:54:22.372Z,13.84
2017-05-17T07:56:49.740Z,12.64
2017-05-17T07:59:16.736Z,11.84
2017-05-17T08:01:44.540Z,11.64
2017-05-17T08:04:11.912Z,10.74
2017-05-17T08:06:38.956Z,11.64
2017-05-17T08:09:06.004Z,11.70
2017-05-17T08:11:33.386Z,12.90
2017-05-17T08:14:00.482Z,12.32
2017-05-17T08:16:27.484Z,12.60
2017-05-17T08:18:54.904Z,11.54
2017-05-17T08:21:21.947Z,11.72
2017-05-17T08:23:48.980Z,13.14
2017-05-17T08:26:16.463Z,14.60
2017-05-17T08:28:43.492Z,13.20
2017-05-17T08:31:10.554Z,13.02
2017-05-17T08:33:38.612Z,11.94
2017-05-17T08:36:05.661Z,12.30
2017-05-17T08:38:32.684Z,10.86
2017-05-17T08:40:59.999Z,9.90
2017-05-17T08:43:27.045Z,10.52
2017-05-17T08:45:54.106Z,11.60
2017-05-17T08:48:21.440Z,11.70
2017-05-17T08:50:48.476Z,11.72
2017-05-17T08:53:15.530Z,11.12
2017-05-17T08:55:42.888Z,11.56
2017-05-17T08:58:09.902Z,11.72
2017-05-17T09:00:36.904Z,12.26
2017-05-17T09:03:04.256Z,10.66
2017-05-17T09:05:31.297Z,10.50
2017-05-17T09:07:58.289Z,10.50
2017-05-17T09:10:25.636Z,11.48
2017-05-17T09:12:53.441Z,11.58
2017-05-17T09:15:20.498Z,10.62
2017-05-17T09:17:47.884Z,10.96
2017-05-17T09:20:14.902Z,10.28
2017-05-17T09:22:41.928Z,10.68
2017-05-17T09:25:09.330Z,10.38
2017-05-17T09:27:37.128Z,10.62
2017-05-17T09:30:04.170Z,11.34
2017-05-17T09:32:32.424Z,10.28
2017-05-17T09:35:00.202Z,9.64
2017-05-17T09:37:27.253Z,10.70
2017-05-17T09:39:54.637Z,9.62
2017-05-17T09:42:21.683Z,9.46
2017-05-17T09:44:48.720Z,10.02
2017-05-17T09:47:16.112Z,9.64
2017-05-17T09:49:43.133Z,10.68
2017-05-17T09:52:10.158Z,10.10
2017-05-17T09:54:37.483Z,8.90
2017-05-17T09:57:05.244Z,9.82
2017-05-17T09:59:32.253Z,10.12
2017-05-17T10:01:59.632Z,9.94
2017-05-17T10:04:27.392Z,10.44
2017-05-17T10:06:54.449Z,10.22
2017-05-17T10:09:22.528Z,8.66
2017-05-17T10:11:49.583Z,9.00
2017-05-17T10:14:16.627Z,9.50
2017-05-17T10:16:43.941Z,9.44
2017-05-17T10:19:10.974Z,8.58
2017-05-17T10:21:38.008Z,8.46
2017-05-17T10:24:12.337Z,8.86
2017-05-17T10:26:39.385Z,10.00
2017-05-17T10:29:06.428Z,8.12
2017-05-17T10:31:33.785Z,8.18
2017-05-17T10:34:00.844Z,9.54
2017-05-17T10:36:27.877Z,9.42
2017-05-17T10:38:55.348Z,9.14
2017-05-17T10:41:22.398Z,7.98
2017-05-17T10:43:49.400Z,8.38
2017-05-17T10:46:16.769Z,7.74
2017-05-17T10:48:43.822Z,8.68
2017-05-17T10:51:10.840Z,7.44
2017-05-17T10:53:38.229Z,8.26
2017-05-17T10:56:06.095Z,7.12
2017-05-17T10:58:33.890Z,6.42
2017-05-17T11:01:01.297Z,6.88
2017-05-17T11:03:28.329Z,7.06
2017-05-17T11:05:55.368Z,6.60
2017-05-17T11:08:22.686Z,6.42
2017-05-17T11:10:49.692Z,5.84
2017-05-17T11:13:17.460Z,6.54
2017-05-17T11:15:45.013Z,6.66
2017-05-17T11:18:12.021Z,8.42
2017-05-17T11:20:39.031Z,7.42
2017-05-17T11:23:13.431Z,6.40
2017-05-17T11:25:40.484Z,5.32
2017-05-17T11:28:08.240Z,5.84
2017-05-17T11:30:36.396Z,6.16
2017-05-17T11:33:03.436Z,5.50
2017-05-17T11:35:30.459Z,5.42
2017-05-17T11:37:58.497Z,4.58
2017-05-17T11:40:25.528Z,4.68
2017-05-17T11:42:52.650Z,6.18
2017-05-17T11:45:20.002Z,7.10
2017-05-17T11:47:47.076Z,5.88
2017-05-17T11:50:14.105Z,10.18
2017-05-17T11:52:42.275Z,4.38
2017-05-17T11:55:09.331Z,4.26
2017-05-17T11:57:37.089Z,8.02
2017-05-17T12:00:04.525Z,4.02
2017-05-17T12:02:31.565Z,4.46
2017-05-17T12:04:58.589Z,4.64
2017-05-17T12:07:25.970Z,4.20
2017-05-17T12:09:53.258Z,4.38
2017-05-17T12:12:20.933Z,12.72
2017-05-17T12:14:48.324Z,5.86
2017-05-17T12:17:16.133Z,4.04
2017-05-17T12:19:43.145Z,4.00
2017-05-17T12:22:11.405Z,3.68
2017-05-17T12:24:38.443Z,4.58
2017-05-17T12:27:05.471Z,4.48
2017-05-17T12:29:32.955Z,3.50
2017-05-17T12:32:00.748Z,4.34
2017-05-17T12:34:27.768Z,3.78
2017-05-17T12:36:55.221Z,5.02
2017-05-17T12:39:23.004Z,4.80
2017-05-17T12:41:50.888Z,4.36
2017-05-17T12:44:18.314Z,3.96
2017-05-17T12:46:45.352Z,4.22
2017-05-17T12:49:13.142Z,4.70
2017-05-17T12:51:40.540Z,3.92
2017-05-17T12:54:07.593Z,4.32
2017-05-17T12:56:34.631Z,3.66
2017-05-17T12:59:02.117Z,4.92
2017-05-17T13:01:29.153Z,4.52
2017-05-17T13:03:56.934Z,4.04
2017-05-17T13:06:25.064Z,3.62
2017-05-17T13:08:52.076Z,4.32
2017-05-17T13:11:19.125Z,3.68
2017-05-17T13:13:46.518Z,3.62
2017-05-17T13:16:13.565Z,4.68
2017-05-17T13:18:40.605Z,4.90
2017-05-17T13:21:08.170Z,3.90
2017-05-17T13:23:35.920Z,3.44
2017-05-17T13:26:03.746Z,3.04
2017-05-17T13:28:31.153Z,3.26
2017-05-17T13:30:58.174Z,3.72
2017-05-17T13:33:25.223Z,2.34
2017-05-17T13:35:52.586Z,3.56
2017-05-17T13:38:19.580Z,3.24
2017-05-17T13:40:46.619Z,2.70
2017-05-17T13:43:14.048Z,2.86
2017-05-17T13:45:41.811Z,2.78
2017-05-17T13:48:09.575Z,3.36
2017-05-17T13:50:36.921Z,3.40
2017-05-17T13:53:04.690Z,3.78
2017-05-17T13:55:31.742Z,2.74
2017-05-17T13:57:59.183Z,3.02
2017-05-17T14:00:26.939Z,4.10
2017-05-17T14:02:54.729Z,2.52
2017-05-17T14:05:22.367Z,3.84
2017-05-17T14:07:49.447Z,4.62
2017-05-17T14:10:16.554Z,3.10
2017-05-17T14:12:44.700Z,3.10
2017-05-17T14:15:11.716Z,2.76
2017-05-17T14:17:38.768Z,3.14
2017-05-17T14:20:06.147Z,3.06
2017-05-17T14:22:33.171Z,4.26
2017-05-17T14:25:00.236Z,3.00
2017-05-17T14:27:29.974Z,2.60
2017-05-17T14:29:57.044Z,3.18
2017-05-17T14:32:24.043Z,3.20
2017-05-17T14:34:51.520Z,3.28
2017-05-17T14:37:19.319Z,2.34
2017-05-17T14:39:46.314Z,3.32
2017-05-17T14:42:13.775Z,2.74
2017-05-17T14:44:41.548Z,3.08
2017-05-17T14:47:08.574Z,2.40
2017-05-17T14:49:35.945Z,2.70
2017-05-17T14:52:03.677Z,2.56
2017-05-17T14:54:30.689Z,2.70
2017-05-17T14:56:58.071Z,2.76
2017-05-17T14:59:25.154Z,3.16
2017-05-17T15:01:52.172Z,3.20
2017-05-17T15:04:19.528Z,2.60
2017-05-17T15:06:47.305Z,3.16
2017-05-17T15:09:15.108Z,3.52
2017-05-17T15:11:42.522Z,2.24
2017-05-17T15:14:09.567Z,2.32
2017-05-17T15:16:37.351Z,2.56
2017-05-17T15:19:04.717Z,2.00
2017-05-17T15:21:31.777Z,2.40
2017-05-17T15:23:58.816Z,2.10
2017-05-17T15:26:26.212Z,2.46
2017-05-17T15:28:53.259Z,2.78
2017-05-17T15:31:21.219Z,1.88
2017-05-17T15:33:48.585Z,2.24
2017-05-17T15:36:15.604Z,2.48
2017-05-17T15:38:42.636Z,2.20
2017-05-17T15:41:10.025Z,2.06
2017-05-17T15:43:37.075Z,2.90
2017-05-17T15:46:04.156Z,2.80
2017-05-17T15:48:31.603Z,3.45
2017-05-17T15:50:58.660Z,7.78
2017-05-17T15:53:25.705Z,2.60
2017-05-17T15:55:56.492Z,3.47
2017-05-17T15:58:23.697Z,12.57
2017-05-17T16:00:50.729Z,3.95
2017-05-17T16:03:20.206Z,2.70
2017-05-17T16:05:50.941Z,2.13
2017-05-17T16:08:17.969Z,7.13
2017-05-17T16:10:45.297Z,1.90
2017-05-17T16:13:13.089Z,4.50
2017-05-17T16:15:40.134Z,3.60
2017-05-17T16:18:08.310Z,3.42
2017-05-17T16:20:35.329Z,2.50
2017-05-17T16:23:03.122Z,2.57
2017-05-17T16:25:30.431Z,2.67
2017-05-17T16:27:57.445Z,3.23
2017-05-17T16:30:24.489Z,3.37
2017-05-17T16:32:51.878Z,2.67
2017-05-17T16:35:18.939Z,1.85
2017-05-17T16:37:45.968Z,2.57
2017-05-17T16:40:13.364Z,1.83
2017-05-17T16:42:40.800Z,2.72
2017-05-17T16:45:08.558Z,2.23
2017-05-17T16:47:36.709Z,2.02
2017-05-17T16:50:03.806Z,4.20
2017-05-17T16:52:30.828Z,1.70
2017-05-17T16:54:58.259Z,1.88
2017-05-17T16:57:25.323Z,1.72
2017-05-17T16:59:52.728Z,2.77
2017-05-17T17:02:20.055Z,1.92
2017-05-17T17:04:47.098Z,1.80
2017-05-17T17:07:14.092Z,1.68
2017-05-17T17:09:41.463Z,1.48
2017-05-17T17:12:09.217Z,2.20
2017-05-17T17:14:36.260Z,1.47
2017-05-17T17:17:03.723Z,1.43
2017-05-17T17:19:31.478Z,1.60
2017-05-17T17:21:59.444Z,2.45
2017-05-17T17:24:27.604Z,2.12
2017-05-17T17:26:54.732Z,3.35
2017-05-17T17:29:21.793Z,1.77
2017-05-17T17:31:49.149Z,2.55
2017-05-17T17:34:16.198Z,1.70
2017-05-17T17:36:44.020Z,1.57
2017-05-17T17:39:11.438Z,1.40
2017-05-17T17:41:38.459Z,1.75
2017-05-17T17:44:05.554Z,2.48
2017-05-17T17:46:39.109Z,1.40
2017-05-17T17:49:06.891Z,1.63
2017-05-17T17:51:34.200Z,1.64
2017-05-17T17:54:02.097Z,1.56
2017-05-17T17:56:29.866Z,2.20
2017-05-17T17:58:56.901Z,1.88
2017-05-17T18:01:25.060Z,1.78
2017-05-17T18:03:52.112Z,3.38
2017-05-17T18:06:19.880Z,2.02
2017-05-17T18:08:48.052Z,1.92
2017-05-17T18:11:15.128Z,1.46
2017-05-17T18:13:42.171Z,3.02
2017-05-17T18:16:09.597Z,2.02
2017-05-17T18:18:36.693Z,1.98
2017-05-17T18:21:03.769Z,3.04
2017-05-17T18:23:31.237Z,2.44
2017-05-17T18:25:59.103Z,3.24
2017-05-17T18:28:26.900Z,2.50
2017-05-17T18:30:54.329Z,3.76
2017-05-17T18:33:22.142Z,2.10
2017-05-17T18:35:49.195Z,2.12
2017-05-17T18:38:16.783Z,2.60
2017-05-17T18:40:44.588Z,2.56
2017-05-17T18:43:11.625Z,2.46
2017-05-17T18:45:38.947Z,2.58
2017-05-17T18:48:06.024Z,2.94
2017-05-17T18:50:33.054Z,2.92
2017-05-17T18:53:00.703Z,3.00
2017-05-17T18:55:27.751Z,3.14
2017-05-17T18:57:54.813Z,3.80
2017-05-17T19:00:22.248Z,3.30
2017-05-17T19:02:49.304Z,3.06
2017-05-17T19:05:16.350Z,3.60
2017-05-17T19:07:43.765Z,4.20
2017-05-17T19:10:10.825Z,3.30
2017-05-17T19:12:38.624Z,4.28
2017-05-17T19:15:06.056Z,3.80
2017-05-17T19:17:33.113Z,3.46
2017-05-17T19:20:00.173Z,3.40
2017-05-17T19:22:27.577Z,3.10
2017-05-17T19:24:54.601Z,3.20
2017-05-17T19:27:21.680Z,3.54
2017-05-17T19:29:49.048Z,3.42
2017-05-17T19:32:16.818Z,3.60
2017-05-17T19:34:43.838Z,3.84
2017-05-17T19:37:11.132Z,3.52
2017-05-17T19:39:38.160Z,3.32
2017-05-17T19:42:05.957Z,3.44
2017-05-17T19:44:33.369Z,3.60
2017-05-17T19:47:01.235Z,3.26
2017-05-17T19:49:28.277Z,4.44
2017-05-17T19:51:55.729Z,4.10
2017-05-17T19:54:22.749Z,3.90
2017-05-17T19:56:49.820Z,3.60
2017-05-17T19:59:17.121Z,5.62
2017-05-17T20:01:44.877Z,4.10
2017-05-17T20:04:12.630Z,4.30
2017-05-17T20:06:39.928Z,4.44
2017-05-17T20:09:06.947Z,4.12
2017-05-17T20:11:35.396Z,3.94
2017-05-17T20:14:02.737Z,4.58
2017-05-17T20:16:29.748Z,6.52
2017-05-17T20:18:56.759Z,3.82
2017-05-17T20:21:24.866Z,4.46
2017-05-17T20:23:52.604Z,8.34
2017-05-17T20:26:19.611Z,4.46
2017-05-17T20:28:47.096Z,5.18
2017-05-17T20:31:14.850Z,4.80
2017-05-17T20:33:41.900Z,5.36
2017-05-17T20:36:09.245Z,4.12
2017-05-17T20:38:36.309Z,4.40
2017-05-17T20:41:03.324Z,4.10
2017-05-17T20:43:30.700Z,4.40
2017-05-17T20:45:57.762Z,4.46
2017-05-17T20:48:24.776Z,4.70
2017-05-17T20:50:52.183Z,5.88
2017-05-17T20:53:20.046Z,5.12
2017-05-17T20:55:47.819Z,4.70
2017-05-17T20:58:15.972Z,4.32
2017-05-17T21:00:43.020Z,3.84
2017-05-17T21:03:10.066Z,4.68
2017-05-17T21:05:37.352Z,4.10
2017-05-17T21:08:04.576Z,4.38
2017-05-17T21:10:31.580Z,4.98
2017-05-17T21:12:58.970Z,4.56
2017-05-17T21:15:26.030Z,4.02
2017-05-17T21:17:53.788Z,4.24
2017-05-17T21:20:21.249Z,5.66
2017-05-17T21:22:48.270Z,4.66
2017-05-17T21:25:15.253Z,5.02
2017-05-17T21:27:42.716Z,4.34
2017-05-17T21:30:10.452Z,4.24
2017-05-17T21:32:37.469Z,4.90
2017-05-17T21:35:04.865Z,5.46
2017-05-17T21:37:31.888Z,5.16
2017-05-17T21:39:58.905Z,4.96
2017-05-17T21:42:26.305Z,5.36
2017-05-17T21:44:53.311Z,5.16
2017-05-17T21:47:20.344Z,5.20
2017-05-17T21:49:47.772Z,5.58
2017-05-17T21:52:15.549Z,5.00
2017-05-17T21:54:43.402Z,5.18
2017-05-17T21:57:11.065Z,5.76
2017-05-17T21:59:38.028Z,6.52
2017-05-17T22:02:05.780Z,5.40
2017-05-17T22:04:33.117Z,5.30
2017-05-17T22:07:00.084Z,5.52
2017-05-17T22:09:27.065Z,6.02
2017-05-17T22:11:55.400Z,5.84
2017-05-17T22:14:22.424Z,6.10
2017-05-17T22:16:49.454Z,6.62
2017-05-17T22:19:16.802Z,5.62
2017-05-17T22:21:43.817Z,6.42
2017-05-17T22:24:12.096Z,6.06
2017-05-17T22:26:40.249Z,5.74
2017-05-17T22:29:07.266Z,5.82
2017-05-17T22:31:34.389Z,6.10
2017-05-17T22:34:01.807Z,5.92
2017-05-17T22:36:28.833Z,6.96
2017-05-17T22:38:55.852Z,6.72
2017-05-17T22:41:23.233Z,6.86
2017-05-17T22:43:50.244Z,6.88
2017-05-17T22:46:17.237Z,6.28
2017-05-17T22:48:44.680Z,6.26
2017-05-17T22:51:11.716Z,6.66
2017-05-17T22:53:38.721Z,6.40
2017-05-17T22:56:06.856Z,6.48
2017-05-17T22:58:33.873Z,6.52
2017-05-17T23:01:00.881Z,6.94
2017-05-17T23:03:28.940Z,7.58
2017-05-17T23:05:55.940Z,7.10
2017-05-17T23:08:22.941Z,7.32
2017-05-17T23:10:51.072Z,7.30
2017-05-17T23:13:18.073Z,6.82
2017-05-17T23:15:45.836Z,8.34
2017-05-17T23:18:13.211Z,7.22
2017-05-17T23:20:40.216Z,7.30
2017-05-17T23:23:07.221Z,8.20
2017-05-17T23:25:34.730Z,7.02
2017-05-17T23:28:01.733Z,7.60
2017-05-17T23:30:28.754Z,6.94
2017-05-17T23:32:56.155Z,8.84
2017-05-17T23:35:23.187Z,7.30
2017-05-17T23:37:50.176Z,7.96
2017-05-17T23:40:17.522Z,9.48
2017-05-17T23:42:44.546Z,7.72
2017-05-17T23:45:11.559Z,8.60
2017-05-17T23:47:38.880Z,7.58
2017-05-17T23:50:07.430Z,7.98
2017-05-17T23:52:34.463Z,7.96
2017-05-17T23:55:01.856Z,8.60
2017-05-17T23:57:28.854Z,7.94
2017-05-17T23:59:55.859Z,8.46
